Time;durP1;ratioP1;P1;durP2;ratioP2;P2;SDS_P1;SDS_P2;PMS_P1;PMS_P2;Temp;Humidity;BMP_temperature;BMP_pressure;BME280_temperature;BME280_humidity;BME280_pressure;Samples;Min_cycle;Max_cycle;Signal;HPM_P1;HPM_P2
2022/07/02 00:01:03;;;;;;;7.67;5.00;;;;;;;19.19;75.65;95695.88;1805619;79;20948;-64
2022/07/02 00:03:36;;;;;;;7.00;5.25;;;;;;;19.14;76.45;95695.25;1805561;79;21606;-64
2022/07/02 00:06:05;;;;;;;11.45;5.72;;;;;;;19.22;76.15;95694.37;1805566;79;20996;-65
2022/07/02 00:08:34;;;;;;;10.93;6.00;;;;;;;19.27;75.75;95695.48;1805635;79;20976;-64
2022/07/02 00:11:03;;;;;;;7.03;5.20;;;;;;;19.27;75.44;95695.48;1805571;79;20997;-65
2022/07/02 00:13:30;;;;;;;9.88;6.30;;;;;;;19.26;76.04;95687.94;1805564;79;20988;-64
2022/07/02 00:15:56;;;;;;;10.38;5.92;;;;;;;19.29;75.72;95688.26;1805586;79;20996;-65
2022/07/02 00:18:23;;;;;;;16.90;6.37;;;;;;;19.33;75.61;95680.48;1805429;79;21533;-64
2022/07/02 00:20:50;;;;;;;6.58;5.55;;;;;;;19.41;75.33;95676.92;1805383;79;21007;-64
2022/07/02 00:23:17;;;;;;;9.63;5.73;;;;;;;19.49;75.00;95677.86;1805635;79;21488;-64
2022/07/02 00:25:53;;;;;;;8.75;5.78;;;;;;;19.54;75.07;95678.00;1805650;79;21047;-65
2022/07/02 00:28:24;;;;;;;10.58;5.42;;;;;;;19.59;74.81;95675.95;1805591;79;20988;-64
2022/07/02 00:30:52;;;;;;;8.48;5.62;;;;;;;19.58;74.80;95678.25;1785162;79;20996;-64
2022/07/02 00:33:20;;;;;;;15.93;6.50;;;;;;;19.61;74.54;95672.72;1805494;79;21466;-65
2022/07/02 00:35:47;;;;;;;11.15;6.60;;;;;;;19.61;73.63;95682.09;1805703;79;21062;-64
2022/07/02 00:38:14;;;;;;;11.80;6.60;;;;;;;19.58;73.36;95684.05;1805547;79;21035;-65
2022/07/02 00:40:43;;;;;;;9.85;5.65;;;;;;;19.62;72.87;95678.45;1802145;79;21031;-64
2022/07/02 00:43:10;;;;;;;7.60;5.87;;;;;;;19.64;72.52;95677.91;1800167;79;21049;-65
2022/07/02 00:45:38;;;;;;;9.30;6.28;;;;;;;19.76;72.00;95681.78;1785246;79;20996;-64
2022/07/02 00:48:06;;;;;;;12.75;6.55;;;;;;;19.91;70.12;95675.20;1805206;79;21034;-65
2022/07/02 00:50:32;;;;;;;8.40;5.95;;;;;;;20.04;68.54;95671.78;1805362;79;21083;-64
2022/07/02 00:52:59;;;;;;;11.78;6.25;;;;;;;20.20;68.14;95677.16;1805405;79;20956;-65
2022/07/02 00:55:26;;;;;;;9.03;6.25;;;;;;;20.31;68.35;95673.91;1805209;79;21062;-65
2022/07/02 00:57:53;;;;;;;9.48;6.35;;;;;;;20.38;68.42;95679.77;1805572;79;21521;-65
2022/07/02 01:00:20;;;;;;;8.03;5.90;;;;;;;20.41;68.39;95674.22;1805292;79;21499;-65
2022/07/02 01:02:48;;;;;;;13.75;6.22;;;;;;;20.44;67.92;95679.44;1805636;79;20999;-65
2022/07/02 01:05:18;;;;;;;7.17;5.72;;;;;;;20.46;68.30;95681.08;1805563;79;21071;-65
2022/07/02 01:10:16;;;;;;;9.05;6.00;;;;;;;20.51;66.84;95683.02;1805312;79;20995;-65
2022/07/02 01:10:18;;;;;;;8.88;5.83;;;;;;;20.63;66.68;95682.81;1802720;79;20960;-65
2022/07/02 01:12:48;;;;;;;7.62;5.28;;;;;;;20.69;67.00;95689.19;1805739;79;20928;-64
2022/07/02 01:15:17;;;;;;;10.48;5.95;;;;;;;20.75;66.68;95690.65;1805249;79;21587;-64
2022/07/02 01:17:44;;;;;;;10.70;6.22;;;;;;;20.77;66.89;95687.89;1805533;79;21488;-65
2022/07/02 01:20:11;;;;;;;12.10;6.05;;;;;;;20.77;67.63;95698.13;1805472;79;21038;-65
2022/07/02 01:22:41;;;;;;;8.68;5.87;;;;;;;20.72;68.27;95694.37;1805535;79;20991;-65
2022/07/02 01:25:08;;;;;;;7.03;5.65;;;;;;;20.69;68.79;95704.41;1805488;79;20976;-65
2022/07/02 01:27:35;;;;;;;7.42;4.55;;;;;;;20.66;69.08;95711.27;1805447;79;20987;-65
2022/07/02 01:30:04;;;;;;;10.03;4.75;;;;;;;20.67;66.84;95709.86;1805417;79;20968;-65
2022/07/02 01:32:31;;;;;;;5.53;4.78;;;;;;;20.82;66.16;95715.30;1805586;79;20983;-64
2022/07/02 01:35:08;;;;;;;8.33;5.67;;;;;;;20.96;63.51;95717.59;1805143;79;21011;-65
2022/07/02 01:37:38;;;;;;;10.23;6.35;;;;;;;21.21;62.90;95710.77;1805427;79;21462;-64
2022/07/02 01:40:07;;;;;;;9.28;6.10;;;;;;;21.28;63.25;95709.45;1804495;79;21019;-65
2022/07/02 01:42:34;;;;;;;7.95;5.30;;;;;;;21.32;63.57;95711.50;1805475;79;21477;-65
2022/07/02 01:45:01;;;;;;;8.13;5.90;;;;;;;21.31;63.73;95724.52;1805820;79;21027;-64
2022/07/02 01:47:27;;;;;;;8.38;5.40;;;;;;;21.30;64.13;95737.08;1805715;79;21454;-64
2022/07/02 01:49:54;;;;;;;8.08;4.67;;;;;;;21.27;64.42;95752.47;1805777;79;20983;-64
2022/07/02 01:52:20;;;;;;;6.87;4.70;;;;;;;21.26;63.26;95761.49;1805524;79;20987;-64
2022/07/02 01:54:47;;;;;;;9.40;4.35;;;;;;;21.33;63.16;95773.61;1805713;79;21461;-64
2022/07/02 01:57:14;;;;;;;7.42;5.33;;;;;;;21.42;62.05;95782.96;1805643;79;20999;-65
2022/07/02 01:59:41;;;;;;;7.45;5.20;;;;;;;21.48;63.77;95789.33;1805839;79;20980;-65
2022/07/02 02:02:08;;;;;;;7.50;4.70;;;;;;;21.42;64.93;95799.95;1805579;79;20995;-64
2022/07/02 02:04:35;;;;;;;6.12;5.22;;;;;;;21.32;66.60;95808.13;1805736;79;21007;-65
2022/07/02 02:07:03;;;;;;;7.12;5.50;;;;;;;21.22;66.75;95816.28;1805438;79;21019;-65
2022/07/02 02:09:30;;;;;;;9.60;5.22;;;;;;;21.14;67.73;95824.32;1805859;79;21082;-65
2022/07/02 02:11:56;;;;;;;6.78;4.95;;;;;;;21.01;67.84;95821.91;1805885;79;21003;-64
2022/07/02 02:14:23;;;;;;;5.35;4.40;;;;;;;20.95;68.48;95820.94;1805410;79;21051;-65
2022/07/02 02:16:50;;;;;;;4.87;4.28;;;;;;;20.84;68.51;95829.59;1805644;79;21023;-64
2022/07/02 02:19:17;;;;;;;7.33;5.12;;;;;;;20.74;67.20;95825.20;1805906;79;21007;-64
2022/07/02 02:21:44;;;;;;;6.62;4.42;;;;;;;20.83;66.67;95825.16;1805539;79;21502;-65
2022/07/02 02:36:47;;;;;;;10.08;5.50;;;;;;;21.67;68.46;95828.03;1808759;78;22891;-65
2022/07/02 02:39:14;;;;;;;6.67;6.05;;;;;;;21.48;68.42;95840.34;1780153;81;20987;-65
2022/07/02 02:41:40;;;;;;;9.33;5.65;;;;;;;21.41;68.48;95832.24;1780246;81;21043;-65
2022/07/02 02:44:07;;;;;;;7.75;5.58;;;;;;;21.31;68.99;95835.89;1780213;80;21023;-66
2022/07/02 02:46:34;;;;;;;10.08;6.20;;;;;;;21.07;70.32;95837.69;1779464;81;21008;-65
2022/07/02 02:49:00;;;;;;;6.67;5.97;;;;;;;20.99;69.89;95845.75;1780179;81;20975;-65
2022/07/02 02:51:27;;;;;;;9.15;7.08;;;;;;;20.90;70.23;95839.10;1779828;81;21078;-65
2022/07/02 02:53:53;;;;;;;6.05;5.37;;;;;;;20.82;70.40;95830.63;1780173;81;21400;-65
2022/07/02 02:56:20;;;;;;;8.10;5.90;;;;;;;20.77;70.88;95832.21;1779778;81;21019;-65
2022/07/02 02:58:47;;;;;;;10.03;7.37;;;;;;;20.68;71.13;95842.95;1780061;80;21018;-65
2022/07/02 03:01:14;;;;;;;13.08;11.73;;;;;;;20.64;71.41;95838.72;1779983;81;21003;-65
2022/07/02 03:03:40;;;;;;;12.58;10.28;;;;;;;20.60;71.10;95842.51;1780097;81;21527;-65
2022/07/02 03:06:07;;;;;;;15.58;11.05;;;;;;;20.61;71.36;95848.25;1780134;81;20975;-65
2022/07/02 03:08:33;;;;;;;18.37;11.73;;;;;;;20.60;71.38;95845.19;1780198;80;20991;-65
2022/07/02 03:11:00;;;;;;;14.65;10.63;;;;;;;20.60;71.42;95843.84;1780010;81;21050;-65
2022/07/02 03:13:27;;;;;;;10.25;7.55;;;;;;;20.59;72.04;95844.81;1780029;81;21015;-65
2022/07/02 03:15:53;;;;;;;9.28;7.25;;;;;;;20.55;72.97;95844.58;1780191;81;21011;-65
2022/07/02 03:18:20;;;;;;;9.68;6.95;;;;;;;20.55;73.26;95847.73;1780004;81;21038;-65
2022/07/02 03:20:46;;;;;;;11.00;6.92;;;;;;;20.49;74.04;95851.11;1779996;81;20979;-65
2022/07/02 03:23:13;;;;;;;7.60;5.70;;;;;;;20.46;74.42;95867.36;1779763;81;21027;-65
2022/07/02 03:25:40;;;;;;;7.00;4.85;;;;;;;20.44;74.44;95857.67;1779650;81;21035;-65
2022/07/02 03:28:06;;;;;;;10.60;5.25;;;;;;;20.35;74.56;95870.20;1779952;81;21441;-65
2022/07/02 03:30:33;;;;;;;6.37;4.58;;;;;;;20.27;74.53;95882.67;1780090;81;20967;-65
2022/07/02 03:32:59;;;;;;;6.72;4.60;;;;;;;20.22;73.97;95899.45;1780103;81;21476;-65
2022/07/02 03:35:26;;;;;;;8.50;6.03;;;;;;;20.17;73.79;95921.60;1780101;80;20983;-65
2022/07/02 03:37:53;;;;;;;22.32;13.40;;;;;;;20.12;74.66;95941.92;1779368;81;20983;-65
2022/07/02 03:40:19;;;;;;;10.88;7.85;;;;;;;19.99;76.12;95955.07;1779433;81;21042;-65
2022/07/02 03:42:46;;;;;;;10.80;6.78;;;;;;;19.90;76.92;95966.23;1779757;81;20967;-65
2022/07/02 03:45:12;;;;;;;9.48;6.22;;;;;;;19.85;76.97;95968.27;1779483;80;21531;-65
2022/07/02 03:47:39;;;;;;;12.78;6.97;;;;;;;19.91;77.12;95965.75;1779160;81;21102;-65
2022/07/02 03:50:07;;;;;;;7.97;5.65;;;;;;;19.94;77.56;95973.66;1779198;81;21034;-65
2022/07/02 03:52:34;;;;;;;8.33;6.30;;;;;;;19.98;77.91;95976.11;1779508;81;20972;-65
2022/07/02 03:55:01;;;;;;;9.60;5.87;;;;;;;19.97;77.89;95990.91;1779541;81;21007;-65
2022/07/02 03:57:28;;;;;;;6.08;4.87;;;;;;;19.95;78.50;95986.95;1779544;81;21046;-65
2022/07/02 03:59:55;;;;;;;7.42;4.78;;;;;;;19.93;78.00;95988.84;1779258;81;21007;-65
2022/07/02 04:02:22;;;;;;;6.25;4.08;;;;;;;19.95;77.61;95990.97;1779151;81;21023;-65
2022/07/02 04:04:50;;;;;;;5.03;4.22;;;;;;;19.96;77.46;95989.16;1779480;81;21061;-65
2022/07/02 04:07:16;;;;;;;5.25;4.50;;;;;;;19.94;77.80;95995.95;1779450;80;21010;-65
2022/07/02 04:09:43;;;;;;;4.03;3.62;;;;;;;19.88;77.28;95992.20;1779740;81;20986;-65
2022/07/02 04:12:10;;;;;;;5.22;3.90;;;;;;;19.80;76.73;96002.44;1779344;81;21054;-65
2022/07/02 04:14:37;;;;;;;3.65;3.33;;;;;;;19.78;76.68;96011.90;1779482;80;21468;-65
2022/07/02 04:17:05;;;;;;;4.25;3.85;;;;;;;19.77;76.62;96014.64;1779277;80;21015;-65
2022/07/02 04:19:31;;;;;;;3.72;3.25;;;;;;;19.75;76.78;96016.52;1779583;80;21447;-65
2022/07/02 04:22:01;;;;;;;3.85;3.27;;;;;;;19.58;76.02;96015.94;1779098;81;21047;-65
2022/07/02 04:24:29;;;;;;;7.53;4.30;;;;;;;19.62;75.87;96003.68;1779578;81;21046;-65
2022/07/02 04:26:57;;;;;;;5.37;3.77;;;;;;;19.66;76.56;96011.11;1779413;81;20960;-65
2022/07/02 04:29:23;;;;;;;7.47;3.37;;;;;;;19.62;77.45;96007.70;1779461;81;21014;-65
2022/07/02 04:31:50;;;;;;;3.27;2.98;;;;;;;19.62;78.66;96013.05;1779293;81;21019;-65
2022/07/02 04:34:16;;;;;;;4.22;3.30;;;;;;;19.52;78.13;96005.06;1779415;81;21054;-65
2022/07/02 04:36:43;;;;;;;3.77;3.10;;;;;;;19.50;79.15;96007.41;1779092;80;21062;-65
2022/07/02 04:39:09;;;;;;;5.20;2.90;;;;;;;19.53;78.40;95994.77;1779870;81;20990;-65
2022/07/02 04:41:36;;;;;;;4.55;2.95;;;;;;;19.54;77.89;96003.66;1779479;81;21018;-65
2022/07/02 04:44:03;;;;;;;4.25;2.90;;;;;;;19.54;77.61;96012.55;1779292;80;20968;-65
2022/07/02 04:46:30;;;;;;;6.58;3.02;;;;;;;19.58;78.00;96016.84;1779175;81;21050;-65
2022/07/02 04:48:56;;;;;;;3.98;2.60;;;;;;;19.60;78.28;96018.08;1779652;80;20995;-65
2022/07/02 04:51:23;;;;;;;5.55;3.12;;;;;;;19.54;78.67;96020.58;1779186;81;21051;-65
2022/07/02 04:53:50;;;;;;;7.05;3.25;;;;;;;19.41;79.04;96012.74;1779301;81;21015;-65
2022/07/02 04:56:17;;;;;;;5.78;3.15;;;;;;;19.40;79.41;96008.31;1779464;80;21037;-65
2022/07/02 04:58:43;;;;;;;5.40;3.55;;;;;;;19.36;79.45;96006.73;1779410;80;21042;-65
2022/07/02 05:01:10;;;;;;;5.42;3.17;;;;;;;19.33;79.07;96009.56;1779038;80;21129;-65
2022/07/02 05:03:36;;;;;;;6.10;3.10;;;;;;;19.28;80.20;96010.22;1779484;81;20998;-65
2022/07/02 05:06:03;;;;;;;3.85;3.08;;;;;;;19.21;80.95;95997.14;1779440;81;21496;-65
2022/07/02 05:08:29;;;;;;;6.40;2.92;;;;;;;19.26;80.25;96002.28;1779500;80;20990;-65
2022/07/02 05:10:56;;;;;;;6.17;2.92;;;;;;;19.30;80.55;96015.89;1779146;81;21003;-65
2022/07/02 05:13:23;;;;;;;4.20;3.77;;;;;;;19.24;81.71;96010.84;1779725;80;21046;-65
2022/07/02 05:15:50;;;;;;;5.17;3.17;;;;;;;19.25;81.39;95984.47;1779356;81;21039;-64
2022/07/02 05:18:17;;;;;;;6.70;4.15;;;;;;;19.31;81.21;95959.27;1779572;80;20971;-65
2022/07/02 05:20:43;;;;;;;5.17;3.98;;;;;;;19.33;80.95;95946.69;1779475;80;21023;-65
2022/07/02 05:23:10;;;;;;;4.90;3.40;;;;;;;19.24;81.13;95949.31;1779767;81;21015;-64
2022/07/02 05:25:37;;;;;;;4.47;3.50;;;;;;;19.15;81.53;95955.08;1779282;80;21523;-65
2022/07/02 05:28:04;;;;;;;5.22;3.22;;;;;;;19.02;81.64;95961.47;1779679;81;20999;-65
2022/07/02 05:30:31;;;;;;;4.95;3.50;;;;;;;18.98;81.92;95968.78;1779435;81;21014;-65
2022/07/02 05:32:57;;;;;;;4.67;3.27;;;;;;;19.03;81.66;95980.13;1779304;80;20998;-65
2022/07/02 05:35:24;;;;;;;5.25;3.08;;;;;;;19.10;82.02;95986.08;1779344;80;21444;-65
2022/07/02 05:37:50;;;;;;;6.80;3.00;;;;;;;19.11;82.18;95977.10;1779469;80;21007;-65
2022/07/02 05:40:17;;;;;;;7.53;6.50;;;;;;;19.20;82.28;95970.45;1779310;81;21011;-65
2022/07/02 05:42:44;;;;;;;4.87;3.60;;;;;;;19.26;82.33;95969.31;1779541;80;20964;-65
2022/07/02 05:45:11;;;;;;;7.10;4.92;;;;;;;19.29;81.40;95966.48;1779416;81;21040;-65
2022/07/02 05:47:37;;;;;;;5.25;3.15;;;;;;;19.26;81.02;95960.81;1779152;81;20976;-65
2022/07/02 05:50:05;;;;;;;6.80;4.08;;;;;;;19.24;81.07;95954.19;1779547;80;21030;-65
2022/07/02 05:52:32;;;;;;;5.67;3.37;;;;;;;19.28;81.31;95952.25;1779372;81;21015;-65
2022/07/02 05:54:58;;;;;;;10.30;8.05;;;;;;;19.37;80.92;95955.81;1779287;81;21030;-65
2022/07/02 05:57:25;;;;;;;8.68;7.30;;;;;;;19.43;81.18;95954.20;1779430;81;21007;-65
2022/07/02 05:59:51;;;;;;;5.15;4.62;;;;;;;19.54;81.63;95964.86;1779413;80;21008;-65
2022/07/02 06:02:18;;;;;;;4.58;3.80;;;;;;;19.65;82.01;95963.85;1779055;81;21039;-65
2022/07/02 06:04:44;;;;;;;14.10;10.53;;;;;;;19.80;81.78;95963.61;1779451;81;21523;-65
2022/07/02 06:09:55;;;;;;;11.43;8.03;;;;;;;19.94;81.78;95957.59;1779696;81;20963;-65
2022/07/02 06:12:22;;;;;;;8.43;6.40;;;;;;;19.96;81.03;95948.98;1779469;80;20999;-65
2022/07/02 06:14:49;;;;;;;6.83;6.00;;;;;;;19.96;80.46;95938.27;1779468;80;21023;-65
2022/07/02 06:17:16;;;;;;;5.37;3.67;;;;;;;20.05;80.93;95940.02;1779307;80;21036;-65
2022/07/02 06:19:46;;;;;;;5.10;4.00;;;;;;;20.17;81.65;95930.50;1779548;81;21000;-65
2022/07/02 06:22:11;;;;;;;5.00;3.75;;;;;;;20.26;82.10;95929.14;1779217;81;21023;-65
2022/07/02 06:24:38;;;;;;;4.67;3.67;;;;;;;20.31;81.68;95918.61;1779520;81;21026;-65
2022/07/02 06:27:05;;;;;;;5.30;3.67;;;;;;;20.44;81.53;95920.66;1779089;81;21153;-65
2022/07/02 06:29:32;;;;;;;3.67;3.35;;;;;;;20.56;81.26;95928.05;1779249;81;20991;-64
2022/07/02 06:31:59;;;;;;;5.70;3.30;;;;;;;20.60;80.77;95928.78;1779144;81;21067;-64
2022/07/02 06:34:25;;;;;;;5.47;3.20;;;;;;;20.62;80.71;95925.55;1779784;81;20982;-65
2022/07/02 06:36:52;;;;;;;5.00;3.50;;;;;;;20.66;79.61;95927.09;1779487;80;21055;-65
2022/07/02 06:39:18;;;;;;;4.17;3.25;;;;;;;20.66;79.43;95921.29;1779418;81;20975;-65
2022/07/02 06:44:30;;;;;;;3.87;3.25;;;;;;;20.66;79.81;95916.37;1779413;80;21018;-65
2022/07/02 06:46:57;;;;;;;5.17;3.52;;;;;;;20.68;80.07;95916.69;1779300;81;21003;-65
2022/07/02 06:49:23;;;;;;;7.85;4.40;;;;;;;20.80;80.12;95919.67;1779420;81;21433;-65
2022/07/02 06:51:50;;;;;;;3.85;3.50;;;;;;;20.91;79.18;95907.87;1779530;80;20979;-65
2022/07/02 06:54:16;;;;;;;25.85;22.15;;;;;;;20.95;79.02;95912.14;1779454;80;21002;-65
2022/07/02 06:56:43;;;;;;;8.78;7.85;;;;;;;20.95;78.73;95918.36;1779334;81;21007;-65
2022/07/02 06:59:10;;;;;;;5.58;4.78;;;;;;;20.93;78.33;95920.25;1779417;80;21007;-64
2022/07/02 07:01:36;;;;;;;5.75;5.25;;;;;;;21.05;79.65;95928.59;1779525;80;20971;-65
2022/07/02 07:04:04;;;;;;;4.10;3.70;;;;;;;21.17;79.75;95946.23;1779300;80;21010;-65
2022/07/02 07:06:37;;;;;;;4.62;3.62;;;;;;;21.29;79.28;95957.23;1779049;81;21512;-64
2022/07/02 07:09:04;;;;;;;5.78;3.72;;;;;;;21.42;77.97;95965.05;1779320;81;21054;-65
2022/07/02 07:11:30;;;;;;;5.12;3.67;;;;;;;21.53;78.08;95962.61;1779373;81;21457;-64
2022/07/02 07:13:57;;;;;;;6.95;3.65;;;;;;;21.59;76.79;95964.94;1779854;81;21034;-64
2022/07/02 07:16:23;;;;;;;4.37;3.98;;;;;;;21.53;75.38;95968.47;1779451;81;21133;-65
2022/07/02 07:19:50;;;;;;;4.95;4.55;;;;;;;21.57;76.08;95976.27;1779073;80;21083;-65
2022/07/02 07:21:28;;;;;;;7.35;4.47;;;;;;;21.59;77.21;95977.50;1747790;81;21839;-64
2022/07/02 07:23:54;;;;;;;7.92;5.33;;;;;;;21.69;77.00;95983.23;1779360;81;21061;-65
2022/07/02 07:26:21;;;;;;;6.28;4.45;;;;;;;21.77;75.88;95981.86;1779521;81;21461;-65
2022/07/02 07:28:48;;;;;;;4.90;4.50;;;;;;;21.82;75.63;95980.23;1779550;81;21496;-64
2022/07/02 07:31:20;;;;;;;8.68;7.75;;;;;;;21.91;75.77;95986.91;1779389;81;21007;-65
2022/07/02 07:33:51;;;;;;;10.05;8.98;;;;;;;22.00;76.06;95984.57;1779524;81;21002;-65
2022/07/02 07:36:20;;;;;;;7.65;6.85;;;;;;;22.08;75.01;95980.09;1780695;80;21537;-65
2022/07/02 07:38:50;;;;;;;9.13;8.20;;;;;;;22.15;75.20;95983.27;1784878;80;21488;-65
2022/07/02 07:41:19;;;;;;;7.15;5.70;;;;;;;22.27;74.22;95985.28;1784757;80;21030;-65
2022/07/02 07:43:46;;;;;;;15.53;7.50;;;;;;;22.36;74.42;95986.58;1784981;80;21021;-65
2022/07/02 07:46:13;;;;;;;5.90;4.45;;;;;;;22.45;73.91;95989.59;1784820;80;21027;-65
2022/07/02 07:48:39;;;;;;;5.37;4.87;;;;;;;22.60;73.86;95990.95;1784811;80;21500;-65
2022/07/02 07:51:06;;;;;;;4.92;4.33;;;;;;;22.66;72.44;95983.39;1785111;80;20963;-65
2022/07/02 07:53:34;;;;;;;5.58;4.45;;;;;;;22.77;72.37;95989.47;1784943;80;21037;-65
2022/07/02 07:56:00;;;;;;;5.42;4.70;;;;;;;22.76;70.99;95990.44;1784925;80;21500;-65
2022/07/02 07:58:27;;;;;;;4.70;4.30;;;;;;;22.75;70.82;95985.14;1785043;80;20959;-65
2022/07/02 08:00:53;;;;;;;6.12;4.12;;;;;;;22.86;70.96;95991.61;1785037;80;21452;-65
2022/07/02 08:03:20;;;;;;;3.92;3.62;;;;;;;23.02;70.94;95990.21;1784749;80;20984;-65
2022/07/02 08:05:53;;;;;;;4.70;4.30;;;;;;;23.22;68.24;95993.50;1785000;80;21070;-65
2022/07/02 08:08:16;;;;;;;5.50;4.00;;;;;;;23.28;66.80;95992.65;1784483;80;21014;-65
2022/07/02 08:10:43;;;;;;;5.80;4.65;;;;;;;23.37;66.20;95982.25;1785053;80;21029;-65
2022/07/02 08:13:09;;;;;;;6.42;5.42;;;;;;;23.44;67.67;95978.21;1784798;80;21023;-65
2022/07/02 08:15:36;;;;;;;5.22;4.37;;;;;;;23.52;66.33;95982.13;1785014;80;21480;-65
2022/07/02 08:18:03;;;;;;;4.95;4.45;;;;;;;23.62;66.64;95990.50;1784510;80;21062;-65
2022/07/02 08:20:30;;;;;;;6.08;4.78;;;;;;;23.79;65.73;95990.80;1784940;80;21042;-65
2022/07/02 08:22:56;;;;;;;4.75;4.15;;;;;;;23.81;65.30;95992.03;1785099;80;21045;-65
2022/07/02 08:25:23;;;;;;;4.97;3.80;;;;;;;23.92;65.75;95993.56;1784881;80;21137;-65
2022/07/02 08:27:49;;;;;;;4.65;4.00;;;;;;;23.98;62.44;95994.49;1784582;80;20991;-65
2022/07/02 08:30:16;;;;;;;6.17;4.00;;;;;;;23.98;62.33;95988.61;1785094;80;21011;-65
2022/07/02 08:32:43;;;;;;;5.10;4.30;;;;;;;24.09;63.54;95986.58;1785019;80;21002;-65
2022/07/02 08:35:10;;;;;;;4.42;4.00;;;;;;;24.30;61.86;95978.03;1784984;80;21018;-65
2022/07/02 08:37:36;;;;;;;5.15;3.83;;;;;;;24.55;61.38;95987.57;1784763;80;21015;-65
2022/07/02 08:40:05;;;;;;;5.40;3.60;;;;;;;24.71;60.28;95991.42;1785193;80;21015;-65
2022/07/02 08:42:32;;;;;;;4.40;3.95;;;;;;;24.92;60.74;95989.10;1784746;80;21023;-65
2022/07/02 08:45:03;;;;;;;5.45;3.77;;;;;;;25.00;58.42;95992.13;1785008;80;21013;-65
2022/07/02 08:47:31;;;;;;;4.65;3.90;;;;;;;25.08;56.32;95982.63;1784818;80;21580;-65
2022/07/02 08:49:59;;;;;;;6.60;4.05;;;;;;;25.16;56.88;95983.84;1784888;80;21018;-65
2022/07/02 08:52:28;;;;;;;3.90;3.50;;;;;;;25.23;58.07;95988.33;1784923;80;21022;-65
2022/07/02 08:54:56;;;;;;;6.72;4.00;;;;;;;25.47;58.38;95993.80;1784901;80;20959;-65
2022/07/02 08:57:23;;;;;;;4.35;3.72;;;;;;;25.65;57.73;95991.16;1784909;80;20991;-65
2022/07/02 08:59:50;;;;;;;4.45;3.90;;;;;;;25.80;54.85;95984.23;1784998;80;21468;-65
2022/07/02 09:02:18;;;;;;;4.60;3.60;;;;;;;25.95;55.85;95987.20;1784451;80;21006;-65
2022/07/02 09:04:48;;;;;;;4.20;3.58;;;;;;;26.08;56.34;95979.93;1785006;80;21014;-65
2022/07/02 09:07:17;;;;;;;4.72;3.33;;;;;;;26.21;53.25;95970.91;1784994;80;21513;-65
2022/07/02 09:09:45;;;;;;;4.90;3.50;;;;;;;26.21;53.47;95973.11;1784916;80;20993;-65
2022/07/02 09:12:14;;;;;;;4.30;3.80;;;;;;;26.42;53.99;95967.91;1784963;80;20999;-65
2022/07/02 09:14:43;;;;;;;5.05;4.28;;;;;;;26.57;53.93;95967.77;1784923;80;20990;-65
2022/07/02 09:17:12;;;;;;;5.17;3.55;;;;;;;26.73;54.62;95961.03;1784941;80;21022;-65
2022/07/02 09:19:39;;;;;;;4.10;3.62;;;;;;;26.86;49.69;95963.69;1784894;80;21030;-65
2022/07/02 09:22:08;;;;;;;4.25;3.20;;;;;;;26.99;51.52;95970.36;1784888;80;21493;-65
2022/07/02 09:24:42;;;;;;;4.30;3.47;;;;;;;27.20;52.25;95974.61;1784824;80;21007;-65
2022/07/02 09:27:11;;;;;;;4.20;3.35;;;;;;;27.43;49.54;95969.20;1785080;80;21115;-65
2022/07/02 09:29:46;;;;;;;4.70;3.47;;;;;;;27.50;50.16;95960.47;1784927;80;21035;-65
2022/07/02 09:32:13;;;;;;;5.80;3.17;;;;;;;27.68;50.89;95962.17;1784940;80;21476;-65
2022/07/02 09:34:46;;;;;;;3.52;3.22;;;;;;;27.80;49.16;95960.33;1784754;80;21104;-65
2022/07/02 09:37:20;;;;;;;7.62;6.15;;;;;;;27.96;49.03;95959.45;1782499;80;21936;-65
2022/07/02 09:39:49;;;;;;;5.80;5.30;;;;;;;28.04;46.24;95948.83;1777932;81;20987;-66
2022/07/02 09:42:34;;;;;;;3.85;3.22;;;;;;;28.16;48.28;95944.24;1779367;80;21021;-65
2022/07/02 09:45:08;;;;;;;3.90;3.40;;;;;;;28.31;45.69;95948.03;1779175;80;21043;-66
2022/07/02 09:47:39;;;;;;;4.25;3.40;;;;;;;28.39;43.70;95949.09;1779547;81;21532;-65
2022/07/02 09:50:10;;;;;;;4.72;3.65;;;;;;;28.57;47.34;95943.14;1778116;81;21537;-65
2022/07/02 09:52:49;;;;;;;4.62;3.58;;;;;;;28.77;45.96;95929.22;1779288;81;21484;-65
2022/07/02 09:55:31;;;;;;;5.42;2.90;;;;;;;29.01;47.41;95938.47;1779399;81;21460;-65
2022/07/02 09:58:01;;;;;;;22.37;20.08;;;;;;;29.18;45.52;95931.58;1779622;80;21050;-66
2022/07/02 10:00:32;;;;;;;4.20;3.30;;;;;;;29.31;43.77;95934.95;1778902;81;20976;-65
2022/07/02 10:03:01;;;;;;;3.47;2.92;;;;;;;29.41;44.57;95936.33;1779367;80;21071;-65
2022/07/02 10:05:34;;;;;;;5.80;3.60;;;;;;;29.54;45.36;95936.48;1779274;80;21007;-65
2022/07/02 10:08:04;;;;;;;6.67;3.83;;;;;;;29.73;44.39;95931.63;1779161;81;20969;-66
2022/07/02 10:10:41;;;;;;;5.72;3.15;;;;;;;29.84;42.54;95938.84;1779447;81;21054;-65
2022/07/02 10:13:11;;;;;;;4.67;3.92;;;;;;;30.00;44.13;95938.81;1779176;80;20994;-65
2022/07/02 10:15:48;;;;;;;4.60;3.47;;;;;;;30.18;42.88;95941.20;1779343;80;21018;-65
2022/07/02 10:18:16;;;;;;;4.92;3.45;;;;;;;30.32;43.77;95943.56;1779309;80;21414;-66
2022/07/02 10:20:43;;;;;;;3.70;3.00;;;;;;;30.39;39.98;95935.19;1779285;81;20975;-66
2022/07/02 10:23:09;;;;;;;4.85;3.12;;;;;;;30.46;40.59;95936.82;1779592;80;20987;-65
2022/07/02 10:25:36;;;;;;;4.08;3.37;;;;;;;30.68;40.03;95932.96;1779395;81;21010;-65
2022/07/02 10:28:03;;;;;;;14.15;3.50;;;;;;;30.81;40.43;95931.30;1779165;80;21481;-65
2022/07/02 10:30:31;;;;;;;3.22;2.92;;;;;;;30.85;39.71;95931.92;1779388;81;21042;-65
2022/07/02 10:33:25;;;;;;;3.70;3.40;;;;;;;30.96;41.14;95935.84;1751295;81;21023;-65
2022/07/02 10:35:52;;;;;;;5.00;3.37;;;;;;;31.04;40.07;95938.68;1779579;80;20991;-65
2022/07/02 10:38:35;;;;;;;7.70;3.20;;;;;;;31.20;40.35;95932.64;1779250;80;21011;-65
2022/07/02 10:41:04;;;;;;;4.92;3.20;;;;;;;31.35;40.81;95935.73;1779228;81;21054;-66
2022/07/02 10:43:36;;;;;;;3.47;3.17;;;;;;;31.42;38.98;95931.44;1779357;80;21555;-65
2022/07/02 10:46:09;;;;;;;3.98;3.15;;;;;;;31.50;37.52;95926.61;1779516;81;20999;-65
2022/07/02 10:48:49;;;;;;;4.37;3.60;;;;;;;31.55;38.96;95927.02;1779299;81;21465;-65
2022/07/02 10:51:35;;;;;;;3.83;3.10;;;;;;;31.59;38.12;95926.57;1779637;81;21023;-66
2022/07/02 10:54:05;;;;;;;18.07;13.72;;;;;;;31.73;39.66;95932.05;1779803;80;21015;-65
2022/07/02 10:56:54;;;;;;;5.65;3.27;;;;;;;31.89;39.52;95927.30;1779368;80;20982;-65
2022/07/02 10:59:26;;;;;;;8.63;4.97;;;;;;;32.05;39.16;95922.05;1779148;81;20995;-65
2022/07/02 11:02:07;;;;;;;4.10;3.55;;;;;;;32.09;35.76;95923.98;1776634;81;21011;-66
2022/07/02 11:04:34;;;;;;;4.10;3.75;;;;;;;32.05;37.13;95920.69;1779602;80;21054;-65
2022/07/02 11:07:11;;;;;;;5.03;3.40;;;;;;;32.15;37.20;95910.22;1779621;80;21457;-65
2022/07/02 11:09:57;;;;;;;3.83;3.42;;;;;;;32.28;37.35;95916.16;1779500;81;21050;-65
2022/07/02 11:12:30;;;;;;;4.83;3.65;;;;;;;32.43;36.99;95917.84;1751960;81;21477;-65
2022/07/02 11:14:57;;;;;;;4.05;3.58;;;;;;;32.45;37.39;95916.67;1777067;81;21504;-65
2022/07/02 11:17:27;;;;;;;5.17;3.37;;;;;;;32.61;35.77;95908.31;1779460;80;21524;-65
2022/07/02 11:19:54;;;;;;;6.00;3.40;;;;;;;32.73;37.57;95912.52;1779193;81;21011;-65
2022/07/02 11:22:21;;;;;;;5.12;3.55;;;;;;;32.88;36.40;95915.04;1779563;81;21004;-65
2022/07/02 11:24:53;;;;;;;5.90;3.80;;;;;;;32.98;37.90;95905.38;1779428;81;21015;-65
2022/07/02 11:27:19;;;;;;;4.35;3.95;;;;;;;32.90;34.80;95903.45;1779774;81;20999;-65
2022/07/02 11:29:55;;;;;;;5.30;3.67;;;;;;;32.93;34.66;95909.95;1779084;81;21096;-65
2022/07/02 11:32:21;;;;;;;4.00;3.52;;;;;;;32.92;35.45;95908.25;1778685;80;20990;-66
2022/07/02 11:34:59;;;;;;;3.80;3.42;;;;;;;33.04;34.23;95896.59;1779421;81;21003;-65
2022/07/02 11:37:25;;;;;;;4.30;3.72;;;;;;;33.05;33.65;95898.30;1779262;80;20984;-65
2022/07/02 11:39:52;;;;;;;5.22;4.40;;;;;;;33.15;36.43;95895.46;1779439;80;21059;-65
2022/07/02 11:42:24;;;;;;;4.62;4.22;;;;;;;33.24;35.34;95889.52;1751580;81;21046;-65
2022/07/02 11:44:56;;;;;;;6.80;4.33;;;;;;;33.36;34.98;95890.97;1774040;81;21463;-65
2022/07/02 11:47:22;;;;;;;6.80;4.45;;;;;;;33.37;36.68;95892.70;1778858;81;21011;-65
2022/07/02 11:49:49;;;;;;;6.05;4.10;;;;;;;33.58;35.75;95890.95;1779450;81;20975;-65
2022/07/02 11:52:18;;;;;;;4.85;4.00;;;;;;;33.70;34.46;95888.80;1779545;81;20967;-65
2022/07/02 11:54:45;;;;;;;4.60;4.20;;;;;;;33.79;34.71;95890.04;1779574;80;21464;-65